Time;durP1;ratioP1;P1;durP2;ratioP2;P2;SDS_P1;SDS_P2;PMS_P1;PMS_P2;Temp;Humidity;BMP_temperature;BMP_pressure;BME280_temperature;BME280_humidity;BME280_pressure;Samples;Min_cycle;Max_cycle;Signal;HPM_P1;HPM_P2
2023/06/17 00:01:01;;;;;;;7.65;5.18;;;18.90;68.00;;;;;;6271294;22;20019;-70
2023/06/17 00:03:27;;;;;;;5.32;4.70;;;18.80;68.30;;;;;;6271922;22;20388;-70
2023/06/17 00:05:52;;;;;;;6.78;4.90;;;18.80;68.80;;;;;;6271639;22;20129;-70
2023/06/17 00:08:18;;;;;;;6.47;4.80;;;18.70;69.40;;;;;;6245041;22;19999;-70
2023/06/17 00:10:44;;;;;;;4.75;4.35;;;18.70;70.00;;;;;;6271828;22;19996;-70
2023/06/17 00:13:10;;;;;;;7.32;4.80;;;18.50;70.50;;;;;;6271990;22;20004;-70
2023/06/17 00:15:36;;;;;;;5.95;4.28;;;18.50;70.80;;;;;;6272115;22;20030;-70
2023/06/17 00:18:03;;;;;;;5.97;5.05;;;18.40;71.10;;;;;;6243785;22;20012;-70
2023/06/17 00:20:29;;;;;;;4.65;4.25;;;18.40;71.40;;;;;;6272242;22;20045;-70
2023/06/17 00:22:54;;;;;;;5.10;4.70;;;18.40;72.00;;;;;;6271460;22;20000;-70
2023/06/17 00:25:20;;;;;;;5.68;4.72;;;18.30;72.10;;;;;;6272216;22;19992;-70
2023/06/17 00:27:46;;;;;;;7.05;5.22;;;18.20;72.40;;;;;;6271832;22;20000;-70
2023/06/17 00:30:12;;;;;;;7.00;4.95;;;18.20;72.80;;;;;;6271893;22;20004;-71
2023/06/17 00:32:37;;;;;;;6.20;5.20;;;18.20;72.80;;;;;;6271556;22;20011;-70
2023/06/17 00:35:05;;;;;;;5.88;5.30;;;18.10;72.70;;;;;;6271659;22;20000;-70
2023/06/17 00:37:30;;;;;;;6.90;5.53;;;18.10;72.60;;;;;;6272292;22;19992;-70
2023/06/17 00:39:56;;;;;;;6.35;5.53;;;18.00;72.40;;;;;;6271231;22;20004;-71
2023/06/17 00:42:22;;;;;;;5.78;5.28;;;18.00;72.40;;;;;;6272378;22;20045;-70
2023/06/17 00:44:47;;;;;;;5.88;5.38;;;18.00;72.40;;;;;;6271941;22;20000;-70
2023/06/17 00:47:14;;;;;;;6.75;5.07;;;18.00;72.50;;;;;;6271340;22;20007;-71
2023/06/17 00:49:42;;;;;;;6.13;5.53;;;17.90;72.80;;;;;;6271672;22;20016;-70
2023/06/17 00:52:09;;;;;;;5.70;4.68;;;17.80;73.30;;;;;;6271689;22;20004;-70
2023/06/17 00:54:37;;;;;;;6.45;5.55;;;17.80;73.70;;;;;;6272031;22;20000;-70
2023/06/17 00:57:13;;;;;;;6.22;5.30;;;17.80;74.00;;;;;;6271532;22;19996;-70
2023/06/17 00:59:41;;;;;;;7.15;6.00;;;17.70;74.30;;;;;;6271449;22;20018;-71
2023/06/17 01:02:09;;;;;;;7.45;5.65;;;17.70;74.70;;;;;;6243954;22;20003;-70
2023/06/17 01:04:37;;;;;;;7.15;6.45;;;17.60;75.00;;;;;;6271857;22;20057;-70
2023/06/17 01:07:40;;;;;;;7.88;5.78;;;17.60;75.30;;;;;;6271412;22;20000;-70
2023/06/17 01:10:18;;;;;;;6.30;5.60;;;17.50;76.10;;;;;;6270420;22;20003;-70
2023/06/17 01:12:46;;;;;;;8.05;6.22;;;17.50;76.00;;;;;;6270569;22;20000;-70
2023/06/17 01:15:16;;;;;;;7.32;5.40;;;17.40;76.20;;;;;;6270615;22;20011;-70
2023/06/17 01:17:44;;;;;;;6.72;6.07;;;17.30;76.40;;;;;;6271444;22;20086;-70
2023/06/17 01:20:15;;;;;;;7.57;6.88;;;17.30;76.80;;;;;;6271440;22;20472;-70
2023/06/17 01:22:44;;;;;;;7.10;6.40;;;17.20;76.80;;;;;;6271717;22;20000;-70
2023/06/17 01:25:13;;;;;;;9.70;7.07;;;17.20;77.20;;;;;;6244242;22;20135;-70
2023/06/17 01:27:39;;;;;;;7.78;7.07;;;17.10;77.40;;;;;;6272857;22;20006;-70
2023/06/17 01:30:05;;;;;;;7.97;7.18;;;17.10;77.70;;;;;;6272535;22;20049;-70
2023/06/17 01:32:30;;;;;;;8.75;7.57;;;17.10;78.00;;;;;;6273712;22;20007;-70
2023/06/17 01:35:06;;;;;;;8.40;7.60;;;17.00;78.30;;;;;;6272904;22;20326;-71
2023/06/17 01:37:49;;;;;;;10.15;7.30;;;17.00;78.90;;;;;;6273749;22;20099;-69
2023/06/17 01:40:20;;;;;;;9.10;7.83;;;17.00;79.00;;;;;;6273309;22;20004;-70
2023/06/17 01:42:49;;;;;;;8.05;7.25;;;16.90;79.00;;;;;;6273603;22;20425;-70
2023/06/17 01:45:15;;;;;;;8.07;7.22;;;16.90;79.00;;;;;;6272638;22;20000;-70
2023/06/17 01:47:42;;;;;;;11.77;8.40;;;16.80;79.10;;;;;;6273151;22;20096;-70
2023/06/17 01:50:08;;;;;;;8.98;8.07;;;16.80;79.10;;;;;;6272931;22;20368;-70
2023/06/17 01:52:34;;;;;;;15.80;9.00;;;16.70;79.00;;;;;;6273604;22;20315;-70
2023/06/17 01:55:00;;;;;;;9.05;8.15;;;16.70;78.90;;;;;;6272507;22;20051;-70
2023/06/17 01:57:26;;;;;;;9.27;7.93;;;16.60;78.70;;;;;;6273632;22;19999;-70
2023/06/17 01:59:56;;;;;;;8.60;7.78;;;16.60;79.00;;;;;;6272226;22;20043;-70
2023/06/17 02:02:22;;;;;;;10.10;8.98;;;16.50;79.00;;;;;;6273426;22;20054;-70
2023/06/17 02:04:48;;;;;;;9.23;8.30;;;16.50;79.10;;;;;;6272846;22;20657;-70
2023/06/17 02:07:17;;;;;;;9.75;8.93;;;16.40;79.10;;;;;;6271312;22;20004;-70
2023/06/17 02:09:43;;;;;;;10.52;9.50;;;16.40;79.30;;;;;;6270331;22;20076;-70
2023/06/17 02:12:09;;;;;;;9.98;8.95;;;16.40;79.20;;;;;;6271009;22;20492;-70
2023/06/17 02:14:34;;;;;;;10.40;9.02;;;16.30;79.30;;;;;;6270801;22;20007;-70
2023/06/17 02:17:00;;;;;;;9.73;8.93;;;16.30;79.50;;;;;;6270508;22;19999;-70
2023/06/17 02:19:28;;;;;;;9.73;8.73;;;16.30;79.70;;;;;;6271285;22;20090;-70
2023/06/17 02:21:54;;;;;;;10.95;9.85;;;16.30;80.00;;;;;;6271116;22;19996;-70
2023/06/17 02:24:21;;;;;;;9.52;8.63;;;16.20;80.10;;;;;;6246422;22;20095;-70
2023/06/17 02:26:49;;;;;;;9.73;8.73;;;16.20;80.20;;;;;;6272955;22;19999;-70
2023/06/17 02:29:15;;;;;;;11.70;9.95;;;16.20;80.20;;;;;;6272405;22;20004;-70
2023/06/17 02:31:40;;;;;;;11.35;9.95;;;16.10;80.10;;;;;;6272769;22;20000;-70
2023/06/17 02:34:06;;;;;;;10.70;9.77;;;16.10;80.10;;;;;;6272764;22;20038;-70
2023/06/17 02:36:32;;;;;;;11.98;9.65;;;16.10;80.20;;;;;;6273528;22;20015;-71
2023/06/17 02:38:59;;;;;;;9.75;8.75;;;16.10;80.40;;;;;;6271888;22;20445;-70
2023/06/17 02:41:25;;;;;;;10.82;9.82;;;16.00;80.50;;;;;;6245949;22;20274;-70
2023/06/17 02:43:50;;;;;;;10.70;9.60;;;16.00;80.80;;;;;;6272419;22;20003;-70
2023/06/17 02:46:16;;;;;;;10.80;9.82;;;16.00;81.20;;;;;;6272533;22;19996;-69
2023/06/17 02:48:41;;;;;;;10.18;9.27;;;15.90;81.30;;;;;;6272783;22;20070;-70
2023/06/17 02:51:07;;;;;;;11.82;9.85;;;15.80;81.40;;;;;;6245615;22;20090;-70
2023/06/17 02:53:33;;;;;;;10.02;9.02;;;15.80;81.60;;;;;;6273009;22;20015;-70
2023/06/17 02:55:58;;;;;;;10.40;8.70;;;15.80;81.70;;;;;;6272502;22;20117;-70
2023/06/17 02:58:25;;;;;;;9.82;9.00;;;15.80;81.90;;;;;;6272430;22;20085;-70
2023/06/17 03:00:54;;;;;;;11.65;10.63;;;15.70;82.00;;;;;;6272494;22;20018;-70
2023/06/17 03:03:23;;;;;;;11.77;10.10;;;15.70;82.40;;;;;;6273312;22;20050;-70
2023/06/17 03:05:48;;;;;;;11.60;10.60;;;15.70;82.60;;;;;;6272364;22;19996;-70
2023/06/17 03:08:17;;;;;;;12.30;11.05;;;15.60;82.70;;;;;;6245439;22;20050;-70
2023/06/17 03:10:43;;;;;;;11.52;10.38;;;15.60;82.90;;;;;;6272045;22;20000;-70
2023/06/17 03:13:08;;;;;;;11.88;10.57;;;15.60;83.00;;;;;;6272787;22;20359;-70
2023/06/17 03:15:34;;;;;;;11.70;10.55;;;15.60;83.10;;;;;;6272895;22;20278;-70
2023/06/17 03:18:00;;;;;;;12.15;10.95;;;15.60;83.20;;;;;;6272208;22;20362;-70
2023/06/17 03:20:28;;;;;;;12.02;10.82;;;15.50;83.40;;;;;;6272629;22;20004;-70
2023/06/17 03:22:55;;;;;;;10.95;9.95;;;15.50;83.50;;;;;;6272247;22;20011;-70
2023/06/17 03:25:21;;;;;;;11.15;10.20;;;15.50;83.60;;;;;;6272101;22;20030;-70
2023/06/17 03:27:47;;;;;;;13.10;10.32;;;15.50;83.70;;;;;;6272557;22;19992;-70
2023/06/17 03:30:13;;;;;;;11.35;10.35;;;15.50;83.70;;;;;;6272410;22;20309;-70
2023/06/17 03:32:38;;;;;;;11.77;10.57;;;15.50;83.80;;;;;;6272615;22;20389;-70
2023/06/17 03:35:04;;;;;;;12.93;11.70;;;15.40;83.80;;;;;;6245005;22;20372;-70
2023/06/17 03:37:30;;;;;;;12.23;10.90;;;15.40;83.90;;;;;;6272791;22;20000;-70
2023/06/17 03:39:55;;;;;;;12.10;11.02;;;15.40;84.10;;;;;;6271388;22;20000;-70
2023/06/17 03:42:21;;;;;;;11.93;10.35;;;15.40;84.30;;;;;;6272860;22;20163;-70
2023/06/17 03:44:47;;;;;;;12.48;11.35;;;15.40;84.40;;;;;;6272347;22;20137;-70
2023/06/17 03:47:12;;;;;;;13.73;12.43;;;15.50;84.70;;;;;;6272607;22;20045;-70
2023/06/17 03:49:38;;;;;;;11.75;10.65;;;15.50;84.80;;;;;;6272335;22;20007;-70
2023/06/17 03:52:03;;;;;;;13.85;12.55;;;15.50;85.70;;;;;;6244992;22;20008;-70
2023/06/17 03:54:30;;;;;;;14.18;12.75;;;15.50;85.20;;;;;;6244095;22;20014;-70
2023/06/17 03:56:55;;;;;;;13.15;11.80;;;15.50;85.20;;;;;;6271882;22;20032;-70
2023/06/17 03:59:21;;;;;;;13.60;12.48;;;15.50;85.20;;;;;;6272722;22;20734;-70
2023/06/17 04:01:46;;;;;;;13.32;12.05;;;15.50;85.20;;;;;;6272000;22;20452;-70
2023/06/17 04:04:12;;;;;;;14.90;13.45;;;15.60;85.30;;;;;;6272149;22;20022;-70
2023/06/17 04:06:37;;;;;;;13.73;12.52;;;15.60;85.30;;;;;;6245337;22;20003;-70
2023/06/17 04:09:04;;;;;;;14.75;13.35;;;15.60;85.40;;;;;;6271371;22;19996;-70
2023/06/17 04:11:32;;;;;;;14.82;13.05;;;15.60;85.40;;;;;;6272723;22;19996;-70
2023/06/17 04:14:01;;;;;;;14.05;12.75;;;15.60;85.40;;;;;;6271774;22;20087;-70
2023/06/17 04:16:30;;;;;;;14.18;12.65;;;15.70;85.60;;;;;;6272551;22;20433;-70
2023/06/17 04:18:57;;;;;;;14.90;13.60;;;15.60;85.60;;;;;;6271569;22;20007;-70
2023/06/17 04:21:23;;;;;;;15.13;13.73;;;15.60;85.80;;;;;;6272679;22;19999;-70
2023/06/17 04:23:48;;;;;;;15.75;14.15;;;15.60;85.90;;;;;;6271587;22;20022;-70
2023/06/17 04:26:15;;;;;;;14.63;13.13;;;15.70;85.90;;;;;;6272389;22;19992;-70
2023/06/17 04:28:40;;;;;;;16.42;13.00;;;15.70;85.90;;;;;;6272174;22;20008;-70
2023/06/17 04:31:10;;;;;;;16.40;14.77;;;15.80;86.00;;;;;;6244956;22;20042;-70
2023/06/17 04:33:37;;;;;;;17.90;16.25;;;15.80;86.10;;;;;;6245101;22;20006;-70
2023/06/17 04:36:08;;;;;;;17.83;16.30;;;15.80;86.00;;;;;;6244475;22;20311;-70
2023/06/17 04:38:36;;;;;;;18.98;17.02;;;15.90;86.10;;;;;;6271716;22;19999;-70
2023/06/17 04:41:04;;;;;;;19.02;17.25;;;15.90;86.10;;;;;;6244370;22;20110;-70
2023/06/17 04:43:30;;;;;;;18.67;17.02;;;15.90;86.10;;;;;;6272461;22;20000;-70
2023/06/17 04:45:56;;;;;;;19.40;17.60;;;16.00;86.20;;;;;;6244620;22;20303;-70
2023/06/17 04:48:22;;;;;;;18.27;16.42;;;16.00;86.20;;;;;;6272484;22;20008;-70
2023/06/17 04:50:48;;;;;;;17.88;16.27;;;16.10;86.30;;;;;;6272261;22;20311;-70
2023/06/17 04:53:14;;;;;;;19.17;17.38;;;16.10;86.30;;;;;;6272246;22;20007;-70
2023/06/17 04:55:39;;;;;;;19.30;17.40;;;16.10;86.30;;;;;;6272158;22;19996;-70
2023/06/17 04:58:05;;;;;;;18.90;16.95;;;16.10;86.40;;;;;;6271933;22;19996;-72
2023/06/17 05:00:31;;;;;;;20.92;17.27;;;16.20;86.50;;;;;;6244818;22;20024;-69
2023/06/17 05:02:57;;;;;;;18.10;16.58;;;16.20;86.60;;;;;;6245709;22;20303;-70
2023/06/17 05:05:23;;;;;;;18.83;17.15;;;16.30;86.70;;;;;;6274429;22;20031;-70
2023/06/17 05:07:48;;;;;;;18.95;16.58;;;16.30;86.70;;;;;;6273152;22;20002;-70
2023/06/17 05:10:14;;;;;;;20.35;18.45;;;16.40;86.70;;;;;;6273915;22;20333;-70
2023/06/17 05:12:43;;;;;;;19.60;17.75;;;16.50;87.30;;;;;;6273829;22;20430;-70
2023/06/17 05:15:09;;;;;;;19.90;18.02;;;16.50;86.60;;;;;;6246725;22;20030;-70
2023/06/17 05:17:34;;;;;;;20.85;17.80;;;16.60;86.60;;;;;;6246919;22;20434;-70
2023/06/17 05:20:00;;;;;;;19.48;17.58;;;16.60;86.60;;;;;;6246269;22;20015;-70
2023/06/17 05:22:26;;;;;;;18.77;17.05;;;16.70;86.50;;;;;;6273446;22;20334;-70
2023/06/17 05:24:51;;;;;;;18.73;16.98;;;16.80;86.60;;;;;;6273766;22;19995;-70
2023/06/17 05:27:17;;;;;;;17.88;16.27;;;16.90;86.70;;;;;;6273702;22;20000;-70
2023/06/17 05:29:42;;;;;;;18.98;17.15;;;17.00;86.80;;;;;;6273728;22;20031;-71
2023/06/17 05:32:08;;;;;;;18.75;16.90;;;17.10;86.80;;;;;;6273597;22;20421;-70
2023/06/17 05:34:34;;;;;;;18.30;16.42;;;17.10;86.60;;;;;;6274101;22;20008;-70
2023/06/17 05:36:59;;;;;;;18.23;16.52;;;17.20;86.70;;;;;;6272658;22;20008;-70
2023/06/17 05:39:25;;;;;;;18.42;16.73;;;17.20;86.70;;;;;;6273814;22;20018;-70
2023/06/17 05:41:50;;;;;;;17.45;15.93;;;17.30;86.70;;;;;;6273674;22;20008;-71
2023/06/17 05:44:16;;;;;;;18.20;16.48;;;17.40;86.70;;;;;;6273548;22;20004;-70
2023/06/17 05:46:42;;;;;;;17.88;16.05;;;17.40;86.80;;;;;;6273690;22;20003;-70
2023/06/17 05:49:07;;;;;;;18.30;16.55;;;17.50;86.90;;;;;;6246193;22;20437;-70
2023/06/17 05:51:33;;;;;;;18.60;16.60;;;17.60;87.00;;;;;;6273452;22;20349;-70
2023/06/17 05:53:58;;;;;;;17.52;15.73;;;17.70;87.10;;;;;;6273329;22;20504;-70
2023/06/17 05:56:24;;;;;;;17.48;15.73;;;17.70;87.10;;;;;;6273852;22;20007;-70
2023/06/17 05:58:50;;;;;;;17.52;15.68;;;17.80;87.10;;;;;;6273358;22;20011;-70
2023/06/17 06:01:16;;;;;;;17.27;15.55;;;17.90;87.10;;;;;;6245903;22;20022;-70
2023/06/17 06:03:42;;;;;;;16.80;15.25;;;18.00;87.00;;;;;;6246210;22;20432;-70
2023/06/17 06:06:07;;;;;;;15.80;14.35;;;18.00;87.00;;;;;;6245341;22;19999;-70
2023/06/17 06:08:33;;;;;;;16.13;14.57;;;18.10;86.80;;;;;;6273781;22;20418;-70
2023/06/17 06:10:59;;;;;;;14.98;13.05;;;18.10;86.70;;;;;;6272745;22;20290;-70
2023/06/17 06:13:25;;;;;;;15.75;14.43;;;18.20;86.70;;;;;;6273672;22;20031;-70
2023/06/17 06:15:50;;;;;;;14.82;13.32;;;18.30;86.70;;;;;;6273272;22;20410;-70
2023/06/17 06:18:16;;;;;;;15.10;11.93;;;18.40;86.50;;;;;;6246006;22;20010;-70
2023/06/17 06:20:41;;;;;;;12.00;10.90;;;18.50;86.20;;;;;;6272518;22;20527;-70
2023/06/17 06:23:09;;;;;;;14.70;10.65;;;18.60;85.50;;;;;;6273163;22;20006;-69
2023/06/17 06:25:34;;;;;;;9.88;8.95;;;18.70;84.70;;;;;;6273431;22;19995;-70
2023/06/17 06:28:00;;;;;;;10.88;9.88;;;18.70;83.60;;;;;;6272848;22;20007;-70
2023/06/17 06:30:25;;;;;;;11.23;10.10;;;18.80;82.80;;;;;;6246286;22;20037;-70
2023/06/17 06:32:51;;;;;;;11.27;9.93;;;18.80;82.20;;;;;;6246051;22;20008;-69
2023/06/17 06:35:17;;;;;;;12.25;9.48;;;18.90;81.90;;;;;;6245340;22;20003;-69
2023/06/17 06:37:42;;;;;;;10.63;9.48;;;18.90;81.60;;;;;;6272712;22;20004;-70
2023/06/17 06:40:08;;;;;;;9.75;8.70;;;19.00;81.10;;;;;;6272564;22;20007;-69
2023/06/17 06:42:34;;;;;;;9.60;7.72;;;19.10;81.10;;;;;;6245730;22;20075;-70
2023/06/17 06:44:59;;;;;;;16.02;7.80;;;19.10;80.60;;;;;;6272495;22;20027;-70
2023/06/17 06:47:25;;;;;;;8.57;7.50;;;19.20;79.50;;;;;;6273055;22;20007;-70
2023/06/17 06:49:50;;;;;;;9.13;6.30;;;19.30;78.70;;;;;;6272180;22;20014;-70
2023/06/17 06:52:16;;;;;;;7.75;6.97;;;19.30;78.20;;;;;;6272694;22;20031;-70
2023/06/17 06:54:41;;;;;;;8.60;7.30;;;19.40;77.90;;;;;;6245483;22;20008;-70
2023/06/17 06:57:07;;;;;;;9.00;7.55;;;19.40;77.60;;;;;;6245800;22;20012;-70
2023/06/17 06:59:32;;;;;;;8.48;7.00;;;19.60;77.40;;;;;;6272411;22;20015;-70
2023/06/17 07:01:58;;;;;;;7.35;6.25;;;19.60;77.00;;;;;;6272041;22;19996;-70
2023/06/17 07:04:24;;;;;;;8.32;5.78;;;19.70;76.00;;;;;;6272961;22;20011;-70
2023/06/17 07:06:49;;;;;;;7.20;5.95;;;19.70;75.10;;;;;;6272616;22;20063;-70
2023/06/17 07:09:15;;;;;;;11.00;6.50;;;19.80;74.90;;;;;;6245084;22;20000;-70
2023/06/17 07:11:41;;;;;;;6.47;5.88;;;19.90;74.70;;;;;;6245029;22;20014;-70
2023/06/17 07:14:06;;;;;;;5.68;5.18;;;19.90;73.90;;;;;;6273309;22;19999;-70
2023/06/17 07:16:32;;;;;;;6.50;5.90;;;20.00;73.40;;;;;;6273037;22;20008;-70
2023/06/17 07:18:57;;;;;;;11.05;6.63;;;20.10;73.20;;;;;;6244308;22;20039;-70
2023/06/17 07:21:23;;;;;;;8.63;6.18;;;20.10;73.00;;;;;;6272856;22;20041;-70
2023/06/17 07:23:50;;;;;;;7.88;6.22;;;20.20;72.50;;;;;;6245184;22;20417;-70
2023/06/17 07:26:16;;;;;;;8.52;5.90;;;20.30;71.90;;;;;;6272071;22;20071;-70
2023/06/17 07:28:42;;;;;;;7.47;5.63;;;20.30;71.30;;;;;;6272601;22;20004;-70
2023/06/17 07:31:08;;;;;;;6.03;5.38;;;20.40;70.00;;;;;;6272290;22;20007;-70
2023/06/17 07:33:33;;;;;;;6.85;5.72;;;20.40;69.60;;;;;;6272092;22;20027;-69
2023/06/17 07:35:59;;;;;;;6.70;4.85;;;20.50;69.60;;;;;;6271414;22;20095;-69
2023/06/17 07:38:25;;;;;;;5.55;5.05;;;20.60;68.80;;;;;;6244588;22;20000;-70
2023/06/17 07:40:51;;;;;;;7.95;4.88;;;20.70;68.70;;;;;;6271697;22;20011;-70
2023/06/17 07:43:16;;;;;;;8.63;5.88;;;20.80;68.70;;;;;;6271858;22;20057;-69
2023/06/17 07:45:42;;;;;;;6.70;5.82;;;21.00;69.40;;;;;;6271638;22;20006;-70
2023/06/17 07:48:07;;;;;;;8.15;5.63;;;21.10;68.20;;;;;;6271315;22;20095;-69
2023/06/17 07:50:33;;;;;;;6.03;5.43;;;21.20;67.60;;;;;;6272151;22;20087;-70
2023/06/17 07:52:58;;;;;;;6.25;5.68;;;21.30;67.60;;;;;;6271568;22;20003;-69
2023/06/17 07:55:25;;;;;;;7.47;4.72;;;21.40;67.50;;;;;;6244728;22;20004;-69
2023/06/17 07:57:50;;;;;;;5.47;4.97;;;21.60;66.70;;;;;;6271967;22;19999;-69
2023/06/17 08:00:16;;;;;;;4.90;4.45;;;21.70;65.90;;;;;;6271337;22;20468;-69
2023/06/17 08:02:43;;;;;;;6.10;5.20;;;21.80;65.20;;;;;;6243947;22;20082;-68
2023/06/17 08:05:09;;;;;;;5.65;4.47;;;21.90;64.20;;;;;;6271775;22;19995;-68
2023/06/17 08:07:35;;;;;;;5.97;5.07;;;22.00;63.60;;;;;;6272242;22;20000;-69
2023/06/17 08:10:01;;;;;;;5.18;4.57;;;22.10;63.20;;;;;;6271216;22;20004;-69
2023/06/17 08:12:26;;;;;;;5.88;5.10;;;22.20;63.00;;;;;;6271880;22;20432;-68
2023/06/17 08:14:52;;;;;;;9.50;4.70;;;22.30;63.00;;;;;;6271616;22;20034;-69
2023/06/17 08:17:18;;;;;;;4.40;4.03;;;22.40;62.30;;;;;;6271038;22;20007;-69
2023/06/17 08:19:43;;;;;;;7.15;4.35;;;22.50;61.90;;;;;;6271196;22;20035;-69
2023/06/17 08:22:10;;;;;;;4.68;4.22;;;22.60;61.00;;;;;;6271280;22;20000;-69
2023/06/17 08:24:36;;;;;;;4.97;4.50;;;22.60;60.20;;;;;;6271409;22;20002;-69
2023/06/17 08:27:02;;;;;;;5.13;4.55;;;22.70;59.90;;;;;;6271222;22;20389;-69
2023/06/17 08:29:28;;;;;;;7.95;5.15;;;22.80;60.00;;;;;;6271900;22;20071;-69
2023/06/17 08:31:54;;;;;;;5.80;3.97;;;22.90;59.50;;;;;;6270438;22;20282;-69
2023/06/17 08:34:21;;;;;;;5.25;4.35;;;23.00;59.10;;;;;;6271529;22;20389;-69
2023/06/17 08:36:49;;;;;;;4.50;4.10;;;23.00;59.20;;;;;;6271945;22;20007;-69
2023/06/17 08:39:15;;;;;;;4.78;4.22;;;23.10;59.20;;;;;;6246117;22;20004;-68
2023/06/17 08:41:42;;;;;;;6.22;5.03;;;23.20;58.40;;;;;;6273244;22;20006;-69
2023/06/17 08:44:13;;;;;;;6.45;4.75;;;23.20;58.10;;;;;;6272839;22;20023;-69
2023/06/17 08:46:42;;;;;;;5.00;4.50;;;23.30;57.60;;;;;;6273543;22;20329;-70
2023/06/17 08:49:10;;;;;;;4.45;4.03;;;23.30;57.50;;;;;;6273532;22;20004;-69
2023/06/17 08:51:35;;;;;;;5.22;4.30;;;23.50;57.30;;;;;;6246434;22;20030;-69
2023/06/17 08:54:02;;;;;;;7.22;4.30;;;23.60;56.80;;;;;;6272964;22;20420;-69
2023/06/17 08:56:28;;;;;;;8.15;4.65;;;23.60;56.50;;;;;;6273560;22;20069;-69
2023/06/17 08:58:55;;;;;;;5.03;4.53;;;23.70;55.80;;;;;;6272509;22;20286;-69
2023/06/17 09:01:22;;;;;;;5.10;4.15;;;23.70;55.10;;;;;;6273436;22;20007;-69
2023/06/17 09:03:51;;;;;;;6.72;3.75;;;23.80;55.10;;;;;;6273429;22;20083;-69
2023/06/17 09:06:25;;;;;;;6.10;4.18;;;23.80;54.70;;;;;;6273559;22;20010;-70
2023/06/17 09:08:52;;;;;;;8.55;4.57;;;23.90;53.70;;;;;;6272517;22;20004;-72
2023/06/17 09:11:39;;;;;;;5.72;4.30;;;24.00;53.80;;;;;;6244309;22;20348;-71
2023/06/17 09:14:05;;;;;;;6.45;4.18;;;24.00;53.80;;;;;;6272127;22;20003;-72
2023/06/17 09:16:35;;;;;;;5.80;4.13;;;24.10;53.80;;;;;;6273710;22;20023;-72
2023/06/17 09:19:06;;;;;;;5.20;3.85;;;24.20;53.60;;;;;;6273163;22;20003;-71
2023/06/17 09:21:32;;;;;;;5.05;4.40;;;24.20;53.50;;;;;;6246577;22;20106;-71
2023/06/17 09:24:00;;;;;;;6.55;4.03;;;24.30;53.10;;;;;;6273151;22;20103;-71
2023/06/17 09:26:29;;;;;;;5.15;4.43;;;24.30;53.10;;;;;;6274144;22;20020;-71
2023/06/17 09:29:03;;;;;;;4.65;4.25;;;24.40;53.30;;;;;;6272763;22;20003;-70
2023/06/17 09:31:29;;;;;;;6.03;4.15;;;24.50;52.80;;;;;;6273390;22;20082;-70
2023/06/17 09:33:56;;;;;;;5.10;3.88;;;24.50;51.80;;;;;;6273057;22;20314;-71
2023/06/17 09:36:23;;;;;;;6.63;4.45;;;24.60;52.00;;;;;;6273900;22;20329;-71
2023/06/17 09:38:51;;;;;;;6.28;4.45;;;24.60;52.20;;;;;;6273363;22;19996;-71
2023/06/17 09:41:18;;;;;;;6.28;4.60;;;24.80;52.20;;;;;;6273507;22;19995;-69
2023/06/17 09:43:51;;;;;;;6.60;3.88;;;24.90;51.20;;;;;;6273002;22;20087;-69
2023/06/17 09:46:29;;;;;;;5.18;4.20;;;24.90;50.40;;;;;;6246288;22;20000;-70
2023/06/17 09:48:55;;;;;;;8.55;4.07;;;25.00;50.40;;;;;;6272937;22;20003;-69
2023/06/17 09:51:23;;;;;;;5.80;4.18;;;25.00;50.40;;;;;;6273879;22;20477;-70
2023/06/17 09:53:50;;;;;;;7.47;4.15;;;25.00;50.20;;;;;;6273476;22;20011;-71
2023/06/17 09:56:18;;;;;;;5.05;4.30;;;25.00;49.90;;;;;;6273680;22;19999;-71
2023/06/17 09:58:44;;;;;;;7.53;4.00;;;25.00;49.80;;;;;;6272829;22;20004;-71
2023/06/17 10:01:11;;;;;;;5.20;4.55;;;25.10;50.30;;;;;;6272848;22;20011;-71
2023/06/17 10:03:39;;;;;;;4.00;3.45;;;25.20;50.00;;;;;;6273407;22;20004;-71
2023/06/17 10:06:13;;;;;;;8.15;4.15;;;25.20;49.80;;;;;;6272450;22;20164;-69
2023/06/17 10:08:47;;;;;;;5.45;3.63;;;25.20;49.70;;;;;;6272897;22;19999;-69
2023/06/17 10:11:17;;;;;;;5.82;4.50;;;25.40;49.50;;;;;;6244769;22;20282;-70
2023/06/17 10:13:46;;;;;;;6.45;3.75;;;25.40;49.70;;;;;;6272984;22;20441;-69
2023/06/17 10:16:15;;;;;;;5.50;3.28;;;25.40;49.50;;;;;;6272964;22;20031;-69
2023/06/17 10:18:45;;;;;;;4.80;3.90;;;25.50;49.00;;;;;;6273007;22;20086;-68
2023/06/17 10:21:13;;;;;;;6.05;4.22;;;25.50;48.10;;;;;;6245720;22;20007;-69
2023/06/17 10:23:41;;;;;;;4.40;3.95;;;25.50;48.20;;;;;;6246418;22;20095;-69
2023/06/17 10:26:07;;;;;;;5.07;3.55;;;25.60;48.60;;;;;;6272410;22;20004;-68
2023/06/17 10:29:01;;;;;;;3.58;3.22;;;25.60;48.50;;;;;;6273557;22;20080;-70
2023/06/17 10:31:29;;;;;;;6.10;3.28;;;25.70;47.20;;;;;;6273495;22;20000;-69
2023/06/17 10:33:57;;;;;;;5.53;3.17;;;25.60;47.30;;;;;;6272689;22;20083;-68
2023/06/17 10:36:23;;;;;;;4.90;3.80;;;25.70;47.10;;;;;;6273433;22;20083;-69
2023/06/17 10:39:10;;;;;;;4.40;3.60;;;25.70;47.20;;;;;;6273087;22;20079;-69
2023/06/17 10:41:41;;;;;;;4.70;3.47;;;25.80;47.40;;;;;;6272739;22;20007;-69
2023/06/17 10:44:26;;;;;;;3.33;3.03;;;25.80;46.30;;;;;;6272866;22;20002;-69
2023/06/17 10:46:52;;;;;;;5.05;3.40;;;25.90;46.80;;;;;;6272494;22;20679;-69
2023/06/17 10:49:19;;;;;;;6.55;3.53;;;25.90;47.10;;;;;;6273169;22;20154;-69
2023/06/17 10:51:48;;;;;;;5.50;3.45;;;26.00;46.80;;;;;;6272801;22;20388;-68
2023/06/17 10:54:14;;;;;;;5.80;3.70;;;26.10;46.00;;;;;;6272722;22;20090;-68
2023/06/17 10:56:46;;;;;;;5.88;3.70;;;26.10;46.20;;;;;;6272269;22;19999;-68
2023/06/17 10:59:12;;;;;;;8.73;3.53;;;26.10;46.10;;;;;;6271945;22;20335;-69
2023/06/17 11:01:41;;;;;;;5.88;3.58;;;26.10;45.90;;;;;;6272764;22;20069;-69
2023/06/17 11:04:12;;;;;;;3.72;3.38;;;26.10;45.40;;;;;;6271935;22;20332;-68
2023/06/17 11:06:37;;;;;;;4.38;3.17;;;26.10;45.60;;;;;;6272482;22;20136;-68
2023/06/17 11:09:04;;;;;;;4.75;3.13;;;26.20;45.80;;;;;;6272285;22;20441;-69
2023/06/17 11:11:30;;;;;;;3.83;3.05;;;26.30;46.00;;;;;;6272847;22;20003;-69
2023/06/17 11:13:55;;;;;;;5.25;3.55;;;26.40;45.70;;;;;;6271807;22;19996;-69
2023/06/17 11:16:21;;;;;;;4.13;3.67;;;26.40;45.70;;;;;;6272294;22;20030;-69
2023/06/17 11:18:47;;;;;;;4.28;2.95;;;26.50;45.10;;;;;;6272440;22;20014;-69
2023/06/17 11:21:13;;;;;;;4.18;3.25;;;26.50;44.60;;;;;;6272289;22;20487;-68
2023/06/17 11:23:42;;;;;;;5.10;3.47;;;26.60;44.90;;;;;;6272001;22;20079;-69
2023/06/17 11:26:09;;;;;;;5.13;3.83;;;26.60;44.40;;;;;;6272204;22;20000;-69
2023/06/17 11:28:35;;;;;;;3.10;2.80;;;26.60;43.30;;;;;;6272634;22;20026;-69
2023/06/17 11:31:01;;;;;;;5.18;3.08;;;26.60;42.60;;;;;;6272075;22;20307;-68
2023/06/17 11:33:28;;;;;;;3.67;3.22;;;26.50;43.10;;;;;;6272601;22;20000;-68
2023/06/17 11:35:54;;;;;;;6.28;3.40;;;26.50;43.40;;;;;;6271734;22;19996;-69
2023/06/17 11:38:24;;;;;;;3.50;3.00;;;26.60;43.00;;;;;;6272205;22;19996;-70
2023/06/17 11:40:57;;;;;;;5.93;3.70;;;26.60;42.70;;;;;;6271770;22;20023;-68
2023/06/17 11:43:26;;;;;;;5.32;3.53;;;26.60;42.80;;;;;;6272814;22;20027;-69
2023/06/17 11:45:58;;;;;;;4.40;3.42;;;26.60;43.20;;;;;;6272282;22;20298;-69
2023/06/17 11:48:33;;;;;;;4.03;3.20;;;26.60;43.10;;;;;;6245316;22;20185;-68
2023/06/17 11:50:59;;;;;;;4.78;3.00;;;26.60;43.90;;;;;;6272051;22;20214;-68
2023/06/17 11:53:36;;;;;;;3.60;3.25;;;26.70;43.90;;;;;;6244712;22;20008;-69
2023/06/17 11:56:05;;;;;;;5.43;3.80;;;26.70;44.20;;;;;;6244501;22;20073;-68
2023/06/17 11:58:37;;;;;;;6.45;4.10;;;26.80;44.70;;;;;;6272296;22;20071;-69
2023/06/17 12:01:03;;;;;;;6.82;3.92;;;26.90;45.10;;;;;;6271317;22;20016;-70
2023/06/17 12:03:29;;;;;;;6.05;4.00;;;27.00;43.50;;;;;;6272646;22;20027;-68
2023/06/17 12:05:56;;;;;;;8.27;4.20;;;27.00;42.80;;;;;;6271469;22;20003;-68
2023/06/17 12:08:22;;;;;;;4.10;3.72;;;27.00;43.30;;;;;;6271918;22;20031;-69
2023/06/17 12:10:47;;;;;;;5.18;3.80;;;27.00;42.70;;;;;;6271897;22;20431;-69
2023/06/17 12:13:13;;;;;;;5.00;3.33;;;27.00;43.30;;;;;;6244992;22;20007;-69
2023/06/17 12:15:39;;;;;;;3.85;3.30;;;27.10;43.50;;;;;;6244926;22;20046;-69
2023/06/17 12:18:12;;;;;;;4.07;3.45;;;27.10;43.40;;;;;;6271881;22;20372;-68
2023/06/17 12:20:38;;;;;;;;;;;27.20;43.00;;;;;;6272417;22;20065;-68
2023/06/17 12:23:04;;;;;;;4.50;3.25;;;27.20;43.20;;;;;;6271375;22;19899;-67
2023/06/17 12:25:34;;;;;;;5.85;3.90;;;27.10;43.60;;;;;;6272138;22;20000;-71
2023/06/17 12:28:01;;;;;;;5.25;3.83;;;27.30;43.60;;;;;;6244366;22;20003;-71
2023/06/17 12:30:27;;;;;;;5.30;3.45;;;27.40;43.20;;;;;;6271943;22;20006;-72
2023/06/17 12:32:53;;;;;;;6.03;4.10;;;27.40;43.50;;;;;;6271574;22;20071;-73
2023/06/17 12:35:19;;;;;;;3.83;3.45;;;27.50;43.30;;;;;;6272214;22;20449;-73
2023/06/17 12:37:46;;;;;;;3.83;3.42;;;27.50;43.10;;;;;;6271400;22;20325;-71
2023/06/17 12:40:12;;;;;;;5.20;3.97;;;27.50;43.00;;;;;;6271550;22;20003;-71